sensor_id;sensor_type;location;lat;lon;timestamp;temperature;humidity
19947;DHT22;10135;50.702;7.276;2023-08-21T05:01:16;23.90;67.80
19947;DHT22;10135;50.702;7.276;2023-08-21T05:03:17;23.90;67.50
19947;DHT22;10135;50.702;7.276;2023-08-21T05:05:17;23.90;67.60
19947;DHT22;10135;50.702;7.276;2023-08-21T05:07:18;23.90;67.70
19947;DHT22;10135;50.702;7.276;2023-08-21T05:09:18;23.90;67.80
19947;DHT22;10135;50.702;7.276;2023-08-21T05:11:20;23.90;67.90
19947;DHT22;10135;50.702;7.276;2023-08-21T05:13:21;23.90;68.00
19947;DHT22;10135;50.702;7.276;2023-08-21T05:15:22;24.00;68.00
19947;DHT22;10135;50.702;7.276;2023-08-21T05:17:24;24.00;68.00
19947;DHT22;10135;50.702;7.276;2023-08-21T05:19:26;24.00;68.20
19947;DHT22;10135;50.702;7.276;2023-08-21T05:21:27;24.00;68.10
19947;DHT22;10135;50.702;7.276;2023-08-21T05:23:28;24.10;68.30
19947;DHT22;10135;50.702;7.276;2023-08-21T05:25:29;24.10;68.30
19947;DHT22;10135;50.702;7.276;2023-08-21T05:27:29;24.10;68.30
19947;DHT22;10135;50.702;7.276;2023-08-21T05:29:30;24.20;68.40
19947;DHT22;10135;50.702;7.276;2023-08-21T05:31:31;24.20;68.30
19947;DHT22;10135;50.702;7.276;2023-08-21T05:33:31;24.20;68.30
19947;DHT22;10135;50.702;7.276;2023-08-21T05:35:35;24.30;68.30
19947;DHT22;10135;50.702;7.276;2023-08-21T05:37:36;24.30;68.60
19947;DHT22;10135;50.702;7.276;2023-08-21T05:39:37;24.30;68.30
19947;DHT22;10135;50.702;7.276;2023-08-21T05:41:38;24.40;68.50
19947;DHT22;10135;50.702;7.276;2023-08-21T05:43:38;24.40;68.60
19947;DHT22;10135;50.702;7.276;2023-08-21T05:45:39;24.40;68.50
19947;DHT22;10135;50.702;7.276;2023-08-21T05:47:40;24.40;68.60
19947;DHT22;10135;50.702;7.276;2023-08-21T05:49:41;24.40;68.60
19947;DHT22;10135;50.702;7.276;2023-08-21T05:51:41;24.50;68.70
19947;DHT22;10135;50.702;7.276;2023-08-21T05:53:42;24.50;68.60
19947;DHT22;10135;50.702;7.276;2023-08-21T05:55:42;24.60;68.70
19947;DHT22;10135;50.702;7.276;2023-08-21T05:57:43;24.60;68.50
19947;DHT22;10135;50.702;7.276;2023-08-21T05:59:45;24.60;68.50
19947;DHT22;10135;50.702;7.276;2023-08-21T06:01:46;24.60;68.60
19947;DHT22;10135;50.702;7.276;2023-08-21T06:03:47;24.60;68.60
19947;DHT22;10135;50.702;7.276;2023-08-21T06:05:48;24.70;68.70
19947;DHT22;10135;50.702;7.276;2023-08-21T06:07:48;24.70;68.70
19947;DHT22;10135;50.702;7.276;2023-08-21T06:09:49;24.70;68.70
19947;DHT22;10135;50.702;7.276;2023-08-21T06:11:49;24.70;68.60
19947;DHT22;10135;50.702;7.276;2023-08-21T06:13:50;24.80;68.70
19947;DHT22;10135;50.702;7.276;2023-08-21T06:15:51;24.90;68.80
19947;DHT22;10135;50.702;7.276;2023-08-21T06:17:51;24.90;68.90
19947;DHT22;10135;50.702;7.276;2023-08-21T06:19:52;25.00;68.80
19947;DHT22;10135;50.702;7.276;2023-08-21T06:21:53;25.10;68.70
19947;DHT22;10135;50.702;7.276;2023-08-21T06:23:55;25.10;68.70
19947;DHT22;10135;50.702;7.276;2023-08-21T06:25:55;25.20;68.80
19947;DHT22;10135;50.702;7.276;2023-08-21T06:27:56;25.20;68.80
19947;DHT22;10135;50.702;7.276;2023-08-21T06:29:56;25.30;68.70
19947;DHT22;10135;50.702;7.276;2023-08-21T06:31:57;25.30;68.70
19947;DHT22;10135;50.702;7.276;2023-08-21T06:33:58;25.30;68.60
19947;DHT22;10135;50.702;7.276;2023-08-21T06:35:59;25.30;68.60
19947;DHT22;10135;50.702;7.276;2023-08-21T06:37:59;25.40;68.60
19947;DHT22;10135;50.702;7.276;2023-08-21T06:40:00;25.40;68.70
19947;DHT22;10135;50.702;7.276;2023-08-21T06:42:02;25.40;68.70
19947;DHT22;10135;50.702;7.276;2023-08-21T06:44:03;25.40;68.70
19947;DHT22;10135;50.702;7.276;2023-08-21T06:46:03;25.40;68.70
19947;DHT22;10135;50.702;7.276;2023-08-21T06:48:04;25.40;68.70
19947;DHT22;10135;50.702;7.276;2023-08-21T06:50:05;25.50;68.70
19947;DHT22;10135;50.702;7.276;2023-08-21T06:52:06;25.50;68.80
19947;DHT22;10135;50.702;7.276;2023-08-21T06:54:06;25.50;68.70
19947;DHT22;10135;50.702;7.276;2023-08-21T06:56:07;25.50;68.80
19947;DHT22;10135;50.702;7.276;2023-08-21T06:58:08;25.50;68.80
19947;DHT22;10135;50.702;7.276;2023-08-21T07:00:09;25.50;68.90
19947;DHT22;10135;50.702;7.276;2023-08-21T07:02:10;25.50;68.80
19947;DHT22;10135;50.702;7.276;2023-08-21T07:04:11;25.50;68.80
19947;DHT22;10135;50.702;7.276;2023-08-21T07:06:12;25.60;68.90
19947;DHT22;10135;50.702;7.276;2023-08-21T07:08:13;25.60;68.90
19947;DHT22;10135;50.702;7.276;2023-08-21T07:10:13;25.60;68.90
19947;DHT22;10135;50.702;7.276;2023-08-21T07:12:14;25.60;68.80
19947;DHT22;10135;50.702;7.276;2023-08-21T07:14:15;25.60;68.90
19947;DHT22;10135;50.702;7.276;2023-08-21T07:16:17;25.60;68.90
19947;DHT22;10135;50.702;7.276;2023-08-21T07:18:17;25.60;69.80
19947;DHT22;10135;50.702;7.276;2023-08-21T07:20:18;25.60;69.00
19947;DHT22;10135;50.702;7.276;2023-08-21T07:22:20;25.60;69.20
19947;DHT22;10135;50.702;7.276;2023-08-21T07:24:21;25.60;69.20
19947;DHT22;10135;50.702;7.276;2023-08-21T07:26:21;25.70;69.30
19947;DHT22;10135;50.702;7.276;2023-08-21T07:28:22;25.70;69.40
19947;DHT22;10135;50.702;7.276;2023-08-21T07:30:22;25.80;69.60
19947;DHT22;10135;50.702;7.276;2023-08-21T07:32:23;25.80;69.40
19947;DHT22;10135;50.702;7.276;2023-08-21T07:34:24;25.90;69.40
19947;DHT22;10135;50.702;7.276;2023-08-21T07:36:24;25.90;69.40
19947;DHT22;10135;50.702;7.276;2023-08-21T07:38:25;25.90;69.40
19947;DHT22;10135;50.702;7.276;2023-08-21T07:40:26;25.90;69.30
19947;DHT22;10135;50.702;7.276;2023-08-21T07:42:29;25.90;69.40
19947;DHT22;10135;50.702;7.276;2023-08-21T07:44:29;26.00;69.40
19947;DHT22;10135;50.702;7.276;2023-08-21T07:46:30;26.00;69.30
19947;DHT22;10135;50.702;7.276;2023-08-21T07:48:31;26.00;69.40
19947;DHT22;10135;50.702;7.276;2023-08-21T07:50:32;26.10;69.50
19947;DHT22;10135;50.702;7.276;2023-08-21T07:52:33;26.10;69.50
19947;DHT22;10135;50.702;7.276;2023-08-21T07:54:35;26.10;69.50
19947;DHT22;10135;50.702;7.276;2023-08-21T07:56:37;26.10;69.50
19947;DHT22;10135;50.702;7.276;2023-08-21T07:58:37;26.10;69.60
19947;DHT22;10135;50.702;7.276;2023-08-21T08:00:38;26.20;69.50
19947;DHT22;10135;50.702;7.276;2023-08-21T08:02:39;26.20;69.50
19947;DHT22;10135;50.702;7.276;2023-08-21T08:04:40;26.20;69.60
19947;DHT22;10135;50.702;7.276;2023-08-21T08:06:43;26.20;69.50
19947;DHT22;10135;50.702;7.276;2023-08-21T08:08:44;26.20;69.50
19947;DHT22;10135;50.702;7.276;2023-08-21T08:10:46;26.30;69.60
19947;DHT22;10135;50.702;7.276;2023-08-21T08:12:46;26.30;69.60
19947;DHT22;10135;50.702;7.276;2023-08-21T08:14:47;26.30;69.60
19947;DHT22;10135;50.702;7.276;2023-08-21T08:16:48;26.30;69.60
19947;DHT22;10135;50.702;7.276;2023-08-21T08:18:48;26.40;69.60
19947;DHT22;10135;50.702;7.276;2023-08-21T08:20:49;26.40;69.50
19947;DHT22;10135;50.702;7.276;2023-08-21T08:22:50;26.40;69.60
19947;DHT22;10135;50.702;7.276;2023-08-21T08:24:50;26.40;69.60
19947;DHT22;10135;50.702;7.276;2023-08-21T08:26:51;26.50;69.60
19947;DHT22;10135;50.702;7.276;2023-08-21T08:28:52;26.50;69.70
19947;DHT22;10135;50.702;7.276;2023-08-21T08:30:52;26.60;69.70
19947;DHT22;10135;50.702;7.276;2023-08-21T08:32:53;26.50;69.40
19947;DHT22;10135;50.702;7.276;2023-08-21T08:34:54;26.60;69.50
19947;DHT22;10135;50.702;7.276;2023-08-21T08:36:54;26.60;69.50
19947;DHT22;10135;50.702;7.276;2023-08-21T08:38:55;26.60;69.40
19947;DHT22;10135;50.702;7.276;2023-08-21T08:40:56;26.70;69.30
19947;DHT22;10135;50.702;7.276;2023-08-21T08:42:58;26.70;69.20
19947;DHT22;10135;50.702;7.276;2023-08-21T08:45:00;26.70;69.10
19947;DHT22;10135;50.702;7.276;2023-08-21T08:47:04;26.80;69.10
19947;DHT22;10135;50.702;7.276;2023-08-21T08:49:05;26.80;69.00
19947;DHT22;10135;50.702;7.276;2023-08-21T08:51:05;26.90;68.90
19947;DHT22;10135;50.702;7.276;2023-08-21T08:53:07;26.90;68.90
19947;DHT22;10135;50.702;7.276;2023-08-21T08:55:08;26.90;68.70
19947;DHT22;10135;50.702;7.276;2023-08-21T08:57:09;27.00;68.70
19947;DHT22;10135;50.702;7.276;2023-08-21T08:59:10;27.00;68.60
19947;DHT22;10135;50.702;7.276;2023-08-21T09:01:10;27.00;68.60
19947;DHT22;10135;50.702;7.276;2023-08-21T09:03:11;27.10;68.50
19947;DHT22;10135;50.702;7.276;2023-08-21T09:05:13;27.10;68.30
19947;DHT22;10135;50.702;7.276;2023-08-21T09:07:17;27.10;68.20
19947;DHT22;10135;50.702;7.276;2023-08-21T09:09:19;27.10;68.00
19947;DHT22;10135;50.702;7.276;2023-08-21T09:11:20;27.20;68.10
19947;DHT22;10135;50.702;7.276;2023-08-21T09:13:21;27.20;68.00
19947;DHT22;10135;50.702;7.276;2023-08-21T09:15:27;27.30;68.10
19947;DHT22;10135;50.702;7.276;2023-08-21T09:17:30;27.30;67.80
19947;DHT22;10135;50.702;7.276;2023-08-21T09:19:30;27.40;68.00
19947;DHT22;10135;50.702;7.276;2023-08-21T09:21:31;27.40;68.00
19947;DHT22;10135;50.702;7.276;2023-08-21T09:23:32;27.40;67.80
19947;DHT22;10135;50.702;7.276;2023-08-21T09:25:37;27.40;67.80
19947;DHT22;10135;50.702;7.276;2023-08-21T09:27:39;27.50;67.60
19947;DHT22;10135;50.702;7.276;2023-08-21T09:29:41;27.50;67.60
19947;DHT22;10135;50.702;7.276;2023-08-21T09:31:42;27.60;67.50
19947;DHT22;10135;50.702;7.276;2023-08-21T09:33:58;27.60;67.40
19947;DHT22;10135;50.702;7.276;2023-08-21T09:36:01;27.70;66.80
19947;DHT22;10135;50.702;7.276;2023-08-21T09:38:05;27.60;67.10
19947;DHT22;10135;50.702;7.276;2023-08-21T09:40:09;27.70;67.10
19947;DHT22;10135;50.702;7.276;2023-08-21T09:42:11;27.70;66.90
19947;DHT22;10135;50.702;7.276;2023-08-21T09:44:12;27.70;66.90
19947;DHT22;10135;50.702;7.276;2023-08-21T09:46:34;27.80;66.80
19947;DHT22;10135;50.702;7.276;2023-08-21T09:48:35;27.80;66.40
19947;DHT22;10135;50.702;7.276;2023-08-21T09:50:37;27.90;66.80
19947;DHT22;10135;50.702;7.276;2023-08-21T09:52:39;27.90;66.60
19947;DHT22;10135;50.702;7.276;2023-08-21T09:54:42;27.90;66.50
19947;DHT22;10135;50.702;7.276;2023-08-21T09:56:43;28.00;66.30
19947;DHT22;10135;50.702;7.276;2023-08-21T09:58:48;28.00;66.40
19947;DHT22;10135;50.702;7.276;2023-08-21T10:00:49;28.00;66.10
19947;DHT22;10135;50.702;7.276;2023-08-21T10:03:00;28.10;66.20
19947;DHT22;10135;50.702;7.276;2023-08-21T10:05:02;28.00;66.00
19947;DHT22;10135;50.702;7.276;2023-08-21T10:07:06;28.10;66.20
19947;DHT22;10135;50.702;7.276;2023-08-21T10:09:08;28.10;66.00
19947;DHT22;10135;50.702;7.276;2023-08-21T10:11:09;28.10;66.10
19947;DHT22;10135;50.702;7.276;2023-08-21T10:13:10;28.20;66.00
19947;DHT22;10135;50.702;7.276;2023-08-21T10:15:12;28.20;65.90
19947;DHT22;10135;50.702;7.276;2023-08-21T10:17:13;28.30;65.80
19947;DHT22;10135;50.702;7.276;2023-08-21T10:19:14;28.30;65.60
19947;DHT22;10135;50.702;7.276;2023-08-21T10:21:19;28.30;65.50
19947;DHT22;10135;50.702;7.276;2023-08-21T10:23:26;28.30;65.40
19947;DHT22;10135;50.702;7.276;2023-08-21T10:25:30;28.30;65.30
19947;DHT22;10135;50.702;7.276;2023-08-21T10:27:31;28.30;65.50
19947;DHT22;10135;50.702;7.276;2023-08-21T10:29:34;28.30;65.40
19947;DHT22;10135;50.702;7.276;2023-08-21T10:31:40;28.30;65.30
19947;DHT22;10135;50.702;7.276;2023-08-21T10:33:46;28.40;65.20
19947;DHT22;10135;50.702;7.276;2023-08-21T10:35:47;28.40;65.00
19947;DHT22;10135;50.702;7.276;2023-08-21T10:38:13;28.50;65.00
19947;DHT22;10135;50.702;7.276;2023-08-21T10:40:24;28.50;64.70
19947;DHT22;10135;50.702;7.276;2023-08-21T10:42:38;28.50;64.60
19947;DHT22;10135;50.702;7.276;2023-08-21T10:46:52;28.60;64.80
19947;DHT22;10135;50.702;7.276;2023-08-21T10:48:53;28.70;64.30
19947;DHT22;10135;50.702;7.276;2023-08-21T10:50:54;28.60;64.60
19947;DHT22;10135;50.702;7.276;2023-08-21T10:52:55;28.70;64.70
19947;DHT22;10135;50.702;7.276;2023-08-21T10:54:58;28.70;64.60
19947;DHT22;10135;50.702;7.276;2023-08-21T10:57:02;28.70;64.50
19947;DHT22;10135;50.702;7.276;2023-08-21T10:59:03;28.80;64.30
19947;DHT22;10135;50.702;7.276;2023-08-21T11:01:04;28.80;64.40
19947;DHT22;10135;50.702;7.276;2023-08-21T11:03:04;28.80;65.00
19947;DHT22;10135;50.702;7.276;2023-08-21T11:05:05;28.80;64.10
19947;DHT22;10135;50.702;7.276;2023-08-21T11:07:08;28.90;64.20
19947;DHT22;10135;50.702;7.276;2023-08-21T11:09:15;28.90;64.20
19947;DHT22;10135;50.702;7.276;2023-08-21T11:11:17;28.90;63.70
19947;DHT22;10135;50.702;7.276;2023-08-21T11:13:17;28.90;64.20
19947;DHT22;10135;50.702;7.276;2023-08-21T11:15:19;29.00;64.00
19947;DHT22;10135;50.702;7.276;2023-08-21T11:17:20;29.10;64.00
19947;DHT22;10135;50.702;7.276;2023-08-21T11:19:24;29.00;63.80
19947;DHT22;10135;50.702;7.276;2023-08-21T11:21:25;29.10;63.70
19947;DHT22;10135;50.702;7.276;2023-08-21T11:23:32;29.10;63.80
19947;DHT22;10135;50.702;7.276;2023-08-21T11:25:40;29.20;63.20
19947;DHT22;10135;50.702;7.276;2023-08-21T11:27:41;29.20;63.00
19947;DHT22;10135;50.702;7.276;2023-08-21T11:31:48;29.30;63.30
19947;DHT22;10135;50.702;7.276;2023-08-21T11:33:50;29.30;63.10
19947;DHT22;10135;50.702;7.276;2023-08-21T11:35:50;29.40;63.00
19947;DHT22;10135;50.702;7.276;2023-08-21T11:37:53;29.40;63.00
19947;DHT22;10135;50.702;7.276;2023-08-21T11:39:56;29.50;63.10
19947;DHT22;10135;50.702;7.276;2023-08-21T11:41:57;29.50;62.80
19947;DHT22;10135;50.702;7.276;2023-08-21T11:44:03;29.60;62.70
19947;DHT22;10135;50.702;7.276;2023-08-21T11:46:09;29.60;62.30
19947;DHT22;10135;50.702;7.276;2023-08-21T11:48:11;29.70;62.60
19947;DHT22;10135;50.702;7.276;2023-08-21T11:50:11;29.80;62.60
19947;DHT22;10135;50.702;7.276;2023-08-21T11:52:23;29.90;62.40
19947;DHT22;10135;50.702;7.276;2023-08-21T11:54:35;30.00;61.80
19947;DHT22;10135;50.702;7.276;2023-08-21T11:56:38;30.00;61.80
19947;DHT22;10135;50.702;7.276;2023-08-21T11:58:45;30.00;61.80
19947;DHT22;10135;50.702;7.276;2023-08-21T12:00:47;30.10;61.80
19947;DHT22;10135;50.702;7.276;2023-08-21T12:02:58;30.20;61.90
19947;DHT22;10135;50.702;7.276;2023-08-21T12:05:04;30.30;61.10
19947;DHT22;10135;50.702;7.276;2023-08-21T12:07:05;30.30;61.30
19947;DHT22;10135;50.702;7.276;2023-08-21T12:09:06;30.40;61.50
19947;DHT22;10135;50.702;7.276;2023-08-21T12:11:07;30.40;61.30
19947;DHT22;10135;50.702;7.276;2023-08-21T12:13:08;30.50;61.30
19947;DHT22;10135;50.702;7.276;2023-08-21T12:15:09;30.50;61.10
19947;DHT22;10135;50.702;7.276;2023-08-21T12:17:10;30.50;61.10
19947;DHT22;10135;50.702;7.276;2023-08-21T12:19:11;30.60;60.80
19947;DHT22;10135;50.702;7.276;2023-08-21T12:21:12;30.60;60.60
19947;DHT22;10135;50.702;7.276;2023-08-21T12:23:13;30.70;60.50
19947;DHT22;10135;50.702;7.276;2023-08-21T12:25:13;30.70;60.50
19947;DHT22;10135;50.702;7.276;2023-08-21T12:27:14;30.70;60.20
19947;DHT22;10135;50.702;7.276;2023-08-21T12:29:15;30.70;60.20
19947;DHT22;10135;50.702;7.276;2023-08-21T12:31:16;30.70;60.10
19947;DHT22;10135;50.702;7.276;2023-08-21T12:33:16;30.70;60.10
19947;DHT22;10135;50.702;7.276;2023-08-21T12:35:17;30.70;60.10
19947;DHT22;10135;50.702;7.276;2023-08-21T12:37:18;30.70;59.90
19947;DHT22;10135;50.702;7.276;2023-08-21T12:39:19;30.70;59.90
19947;DHT22;10135;50.702;7.276;2023-08-21T12:41:19;30.70;59.80
19947;DHT22;10135;50.702;7.276;2023-08-21T12:43:20;30.70;59.60
19947;DHT22;10135;50.702;7.276;2023-08-21T12:45:22;30.70;59.50
19947;DHT22;10135;50.702;7.276;2023-08-21T12:47:22;30.70;59.50
19947;DHT22;10135;50.702;7.276;2023-08-21T12:49:23;30.70;59.40
19947;DHT22;10135;50.702;7.276;2023-08-21T12:51:24;30.60;59.30
19947;DHT22;10135;50.702;7.276;2023-08-21T12:53:24;30.60;59.20
19947;DHT22;10135;50.702;7.276;2023-08-21T12:55:25;30.50;59.10
19947;DHT22;10135;50.702;7.276;2023-08-21T12:57:26;30.50;59.10
19947;DHT22;10135;50.702;7.276;2023-08-21T12:59:26;30.40;59.70
19947;DHT22;10135;50.702;7.276;2023-08-21T13:01:27;30.40;59.10
19947;DHT22;10135;50.702;7.276;2023-08-21T13:03:28;30.40;59.10
19947;DHT22;10135;50.702;7.276;2023-08-21T13:05:28;30.30;59.10
19947;DHT22;10135;50.702;7.276;2023-08-21T13:07:29;30.30;59.10
19947;DHT22;10135;50.702;7.276;2023-08-21T13:09:29;30.20;59.00
19947;DHT22;10135;50.702;7.276;2023-08-21T13:11:30;30.20;59.00
19947;DHT22;10135;50.702;7.276;2023-08-21T13:13:31;30.20;59.00
19947;DHT22;10135;50.702;7.276;2023-08-21T13:15:33;30.10;58.90
19947;DHT22;10135;50.702;7.276;2023-08-21T13:17:35;30.10;58.90
19947;DHT22;10135;50.702;7.276;2023-08-21T13:19:36;30.10;58.90
19947;DHT22;10135;50.702;7.276;2023-08-21T13:21:36;30.20;58.90
19947;DHT22;10135;50.702;7.276;2023-08-21T13:23:37;30.10;58.80
19947;DHT22;10135;50.702;7.276;2023-08-21T13:25:38;30.10;58.70
19947;DHT22;10135;50.702;7.276;2023-08-21T13:27:39;30.10;58.70
19947;DHT22;10135;50.702;7.276;2023-08-21T13:29:39;30.00;58.70
19947;DHT22;10135;50.702;7.276;2023-08-21T13:31:40;30.00;58.70
19947;DHT22;10135;50.702;7.276;2023-08-21T13:33:45;30.00;58.70
19947;DHT22;10135;50.702;7.276;2023-08-21T13:35:49;30.00;58.50
19947;DHT22;10135;50.702;7.276;2023-08-21T13:37:50;30.00;58.70
19947;DHT22;10135;50.702;7.276;2023-08-21T13:39:51;30.00;58.60
19947;DHT22;10135;50.702;7.276;2023-08-21T13:41:52;30.00;58.70
19947;DHT22;10135;50.702;7.276;2023-08-21T13:43:52;30.00;58.70
19947;DHT22;10135;50.702;7.276;2023-08-21T13:45:53;30.00;58.70
19947;DHT22;10135;50.702;7.276;2023-08-21T13:47:54;30.00;58.50
19947;DHT22;10135;50.702;7.276;2023-08-21T13:49:54;30.00;58.40
19947;DHT22;10135;50.702;7.276;2023-08-21T13:51:55;30.00;58.30
19947;DHT22;10135;50.702;7.276;2023-08-21T13:53:55;30.10;58.30
19947;DHT22;10135;50.702;7.276;2023-08-21T13:55:56;30.10;58.20
19947;DHT22;10135;50.702;7.276;2023-08-21T13:57:57;30.10;58.10
19947;DHT22;10135;50.702;7.276;2023-08-21T14:00:01;30.10;58.00
19947;DHT22;10135;50.702;7.276;2023-08-21T14:02:02;30.10;58.00
19947;DHT22;10135;50.702;7.276;2023-08-21T14:04:03;30.10;58.00
19947;DHT22;10135;50.702;7.276;2023-08-21T14:06:04;30.10;57.90
19947;DHT22;10135;50.702;7.276;2023-08-21T14:08:04;30.10;57.80
19947;DHT22;10135;50.702;7.276;2023-08-21T14:10:06;30.10;57.80
19947;DHT22;10135;50.702;7.276;2023-08-21T14:12:07;30.10;57.70
19947;DHT22;10135;50.702;7.276;2023-08-21T14:14:08;30.10;57.70
19947;DHT22;10135;50.702;7.276;2023-08-21T14:16:09;30.20;57.70
19947;DHT22;10135;50.702;7.276;2023-08-21T14:18:09;30.20;57.70
19947;DHT22;10135;50.702;7.276;2023-08-21T14:20:10;30.20;57.60
19947;DHT22;10135;50.702;7.276;2023-08-21T14:22:11;30.20;57.60
19947;DHT22;10135;50.702;7.276;2023-08-21T14:24:12;30.20;57.50
19947;DHT22;10135;50.702;7.276;2023-08-21T14:26:13;30.20;57.40
19947;DHT22;10135;50.702;7.276;2023-08-21T14:28:13;30.30;57.30
19947;DHT22;10135;50.702;7.276;2023-08-21T14:30:14;30.30;57.30
19947;DHT22;10135;50.702;7.276;2023-08-21T14:32:15;30.30;57.30
19947;DHT22;10135;50.702;7.276;2023-08-21T14:34:15;30.30;57.10
19947;DHT22;10135;50.702;7.276;2023-08-21T14:36:16;30.40;57.10
19947;DHT22;10135;50.702;7.276;2023-08-21T14:38:17;30.40;57.00
19947;DHT22;10135;50.702;7.276;2023-08-21T14:40:17;30.30;56.90
19947;DHT22;10135;50.702;7.276;2023-08-21T14:42:18;30.40;56.90
19947;DHT22;10135;50.702;7.276;2023-08-21T14:44:19;30.40;56.70
19947;DHT22;10135;50.702;7.276;2023-08-21T14:46:20;30.40;56.60
19947;DHT22;10135;50.702;7.276;2023-08-21T14:48:20;30.40;56.60
19947;DHT22;10135;50.702;7.276;2023-08-21T14:50:21;30.40;56.40
19947;DHT22;10135;50.702;7.276;2023-08-21T14:52:22;30.50;56.40
19947;DHT22;10135;50.702;7.276;2023-08-21T14:54:22;30.50;56.30
19947;DHT22;10135;50.702;7.276;2023-08-21T14:56:23;30.50;56.30
19947;DHT22;10135;50.702;7.276;2023-08-21T14:58:24;30.40;56.10
19947;DHT22;10135;50.702;7.276;2023-08-21T15:00:25;30.40;56.00
19947;DHT22;10135;50.702;7.276;2023-08-21T15:02:25;30.40;56.00
19947;DHT22;10135;50.702;7.276;2023-08-21T15:04:26;30.40;56.00
19947;DHT22;10135;50.702;7.276;2023-08-21T15:06:27;30.40;56.00
19947;DHT22;10135;50.702;7.276;2023-08-21T15:08:28;30.40;56.10
19947;DHT22;10135;50.702;7.276;2023-08-21T15:10:29;30.40;56.00
19947;DHT22;10135;50.702;7.276;2023-08-21T15:12:29;30.40;56.00
19947;DHT22;10135;50.702;7.276;2023-08-21T15:14:30;30.40;55.90
19947;DHT22;10135;50.702;7.276;2023-08-21T15:16:31;30.40;55.80
19947;DHT22;10135;50.702;7.276;2023-08-21T15:18:31;30.40;55.70
19947;DHT22;10135;50.702;7.276;2023-08-21T15:20:33;30.40;55.60
19947;DHT22;10135;50.702;7.276;2023-08-21T15:22:33;30.30;55.40
19947;DHT22;10135;50.702;7.276;2023-08-21T15:24:34;30.30;55.40
19947;DHT22;10135;50.702;7.276;2023-08-21T15:26:35;30.30;55.30
19947;DHT22;10135;50.702;7.276;2023-08-21T15:28:35;30.30;55.30
19947;DHT22;10135;50.702;7.276;2023-08-21T15:30:36;30.30;55.20
19947;DHT22;10135;50.702;7.276;2023-08-21T15:32:37;30.20;55.00
19947;DHT22;10135;50.702;7.276;2023-08-21T15:34:38;30.20;55.00
19947;DHT22;10135;50.702;7.276;2023-08-21T15:36:39;30.20;55.10
19947;DHT22;10135;50.702;7.276;2023-08-21T15:38:39;30.20;55.00
19947;DHT22;10135;50.702;7.276;2023-08-21T15:40:40;30.20;55.00
19947;DHT22;10135;50.702;7.276;2023-08-21T15:42:40;30.10;54.80
19947;DHT22;10135;50.702;7.276;2023-08-21T15:44:42;30.10;54.80
19947;DHT22;10135;50.702;7.276;2023-08-21T15:46:42;30.10;54.70
19947;DHT22;10135;50.702;7.276;2023-08-21T15:48:43;30.10;54.70
19947;DHT22;10135;50.702;7.276;2023-08-21T15:50:44;30.10;54.70
19947;DHT22;10135;50.702;7.276;2023-08-21T15:52:45;30.10;54.60
19947;DHT22;10135;50.702;7.276;2023-08-21T15:54:46;30.00;54.60
19947;DHT22;10135;50.702;7.276;2023-08-21T15:56:50;30.00;54.60
19947;DHT22;10135;50.702;7.276;2023-08-21T15:58:52;30.10;54.70
19947;DHT22;10135;50.702;7.276;2023-08-21T16:00:54;30.00;54.50
19947;DHT22;10135;50.702;7.276;2023-08-21T16:02:57;30.00;54.40
19947;DHT22;10135;50.702;7.276;2023-08-21T16:05:00;30.00;54.30
19947;DHT22;10135;50.702;7.276;2023-08-21T16:07:01;30.00;54.30
19947;DHT22;10135;50.702;7.276;2023-08-21T16:09:02;30.00;54.30
19947;DHT22;10135;50.702;7.276;2023-08-21T16:11:04;30.10;54.30
19947;DHT22;10135;50.702;7.276;2023-08-21T16:13:05;30.00;54.10
19947;DHT22;10135;50.702;7.276;2023-08-21T16:15:06;30.00;54.10
19947;DHT22;10135;50.702;7.276;2023-08-21T16:17:07;30.00;54.00
19947;DHT22;10135;50.702;7.276;2023-08-21T16:19:08;30.00;54.00
19947;DHT22;10135;50.702;7.276;2023-08-21T16:21:08;30.00;54.00
19947;DHT22;10135;50.702;7.276;2023-08-21T16:23:09;30.00;54.00
19947;DHT22;10135;50.702;7.276;2023-08-21T16:25:10;30.00;54.00
19947;DHT22;10135;50.702;7.276;2023-08-21T16:27:13;30.00;54.00
19947;DHT22;10135;50.702;7.276;2023-08-21T16:29:13;30.00;53.90
19947;DHT22;10135;50.702;7.276;2023-08-21T16:31:17;30.00;53.80
19947;DHT22;10135;50.702;7.276;2023-08-21T16:33:18;30.00;53.80
19947;DHT22;10135;50.702;7.276;2023-08-21T16:35:18;30.00;53.70
19947;DHT22;10135;50.702;7.276;2023-08-21T16:37:20;29.90;53.60
19947;DHT22;10135;50.702;7.276;2023-08-21T16:39:21;29.90;53.60
19947;DHT22;10135;50.702;7.276;2023-08-21T16:41:22;29.90;53.60
19947;DHT22;10135;50.702;7.276;2023-08-21T16:43:22;29.90;53.60
19947;DHT22;10135;50.702;7.276;2023-08-21T16:45:23;29.90;53.50
19947;DHT22;10135;50.702;7.276;2023-08-21T16:47:24;29.90;53.50
19947;DHT22;10135;50.702;7.276;2023-08-21T16:49:24;30.00;53.50
19947;DHT22;10135;50.702;7.276;2023-08-21T16:51:25;29.90;53.40
19947;DHT22;10135;50.702;7.276;2023-08-21T16:53:26;29.90;53.50
19947;DHT22;10135;50.702;7.276;2023-08-21T16:55:26;29.90;53.50
19947;DHT22;10135;50.702;7.276;2023-08-21T16:57:27;29.90;53.50
19947;DHT22;10135;50.702;7.276;2023-08-21T16:59:28;29.90;53.50
19947;DHT22;10135;50.702;7.276;2023-08-21T17:01:28;29.90;53.50
19947;DHT22;10135;50.702;7.276;2023-08-21T17:03:29;29.90;53.40
19947;DHT22;10135;50.702;7.276;2023-08-21T17:05:29;29.90;53.30
19947;DHT22;10135;50.702;7.276;2023-08-21T17:07:31;29.90;53.30
19947;DHT22;10135;50.702;7.276;2023-08-21T17:09:34;29.90;53.30
19947;DHT22;10135;50.702;7.276;2023-08-21T17:11:35;29.90;53.30
19947;DHT22;10135;50.702;7.276;2023-08-21T17:13:35;29.90;53.30
19947;DHT22;10135;50.702;7.276;2023-08-21T17:15:36;29.90;53.30
19947;DHT22;10135;50.702;7.276;2023-08-21T17:17:37;29.90;53.20
19947;DHT22;10135;50.702;7.276;2023-08-21T17:19:37;29.90;53.20
19947;DHT22;10135;50.702;7.276;2023-08-21T17:21:38;29.90;53.10
19947;DHT22;10135;50.702;7.276;2023-08-21T17:23:39;29.90;53.10
19947;DHT22;10135;50.702;7.276;2023-08-21T17:25:40;29.90;53.00
19947;DHT22;10135;50.702;7.276;2023-08-21T17:27:41;29.90;53.00
19947;DHT22;10135;50.702;7.276;2023-08-21T17:29:42;29.90;53.00
19947;DHT22;10135;50.702;7.276;2023-08-21T17:31:43;29.80;52.90
19947;DHT22;10135;50.702;7.276;2023-08-21T17:33:43;29.80;52.90
19947;DHT22;10135;50.702;7.276;2023-08-21T17:35:44;29.80;52.90
19947;DHT22;10135;50.702;7.276;2023-08-21T17:37:45;29.80;52.90
19947;DHT22;10135;50.702;7.276;2023-08-21T17:39:45;29.80;52.90
19947;DHT22;10135;50.702;7.276;2023-08-21T17:41:46;29.70;52.80
19947;DHT22;10135;50.702;7.276;2023-08-21T17:43:46;29.70;52.80
19947;DHT22;10135;50.702;7.276;2023-08-21T17:45:47;29.70;52.80
19947;DHT22;10135;50.702;7.276;2023-08-21T17:47:48;29.70;52.80
19947;DHT22;10135;50.702;7.276;2023-08-21T17:49:48;29.70;52.80
19947;DHT22;10135;50.702;7.276;2023-08-21T17:51:49;29.60;52.80